Time;durP1;ratioP1;P1;durP2;ratioP2;P2;SDS_P1;SDS_P2;PMS_P1;PMS_P2;Temp;Humidity;BMP_temperature;BMP_pressure;BME280_temperature;BME280_humidity;BME280_pressure;Samples;Min_cycle;Max_cycle;Signal;HPM_P1;HPM_P2
2024/02/21 00:00:19;;;;;;;39.22;19.80;;;9.30;99.90;;;;;;4974722;28;20041;-74
2024/02/21 00:02:46;;;;;;;32.78;18.98;;;9.20;99.90;;;;;;4980897;28;20099;-74
2024/02/21 00:05:12;;;;;;;29.05;17.73;;;9.20;99.90;;;;;;4999402;28;20040;-75
2024/02/21 00:07:39;;;;;;;27.80;17.55;;;9.30;99.90;;;;;;4979937;28;20033;-74
2024/02/21 00:10:06;;;;;;;32.67;19.02;;;9.30;99.90;;;;;;4967233;28;20053;-75
2024/02/21 00:12:32;;;;;;;27.65;17.27;;;9.30;99.90;;;;;;4983399;28;20037;-74
2024/02/21 00:14:59;;;;;;;34.25;18.20;;;9.30;99.90;;;;;;4973819;28;20033;-75
2024/02/21 00:17:26;;;;;;;28.25;17.02;;;9.20;99.90;;;;;;4990358;28;20044;-73
2024/02/21 00:19:53;;;;;;;29.92;18.45;;;9.30;99.90;;;;;;4967576;28;21214;-74
2024/02/21 00:22:20;;;;;;;35.58;20.58;;;9.30;99.90;;;;;;4981564;28;20029;-75
2024/02/21 00:24:46;;;;;;;30.55;17.40;;;9.30;99.90;;;;;;4965183;28;20052;-75
2024/02/21 00:27:13;;;;;;;30.45;18.98;;;9.30;99.90;;;;;;4981091;28;20384;-73
2024/02/21 00:29:39;;;;;;;38.67;19.00;;;9.30;99.90;;;;;;4978645;28;20037;-75
2024/02/21 00:32:06;;;;;;;29.60;17.83;;;9.30;99.90;;;;;;4984814;28;20476;-75
2024/02/21 00:34:32;;;;;;;28.92;17.70;;;9.30;99.90;;;;;;4991065;28;20037;-74
2024/02/21 00:36:59;;;;;;;27.20;16.80;;;9.30;99.90;;;;;;4958674;28;20048;-74
2024/02/21 00:39:25;;;;;;;22.50;15.63;;;9.30;99.90;;;;;;4997867;28;20042;-74
2024/02/21 00:41:53;;;;;;;30.02;17.30;;;9.30;99.90;;;;;;4952306;28;20049;-75
2024/02/21 00:44:19;;;;;;;28.90;17.70;;;9.30;99.90;;;;;;4975729;28;20241;-75
2024/02/21 00:46:47;;;;;;;33.08;18.20;;;9.30;99.90;;;;;;4979005;28;20542;-74
2024/02/21 00:49:13;;;;;;;30.92;17.40;;;9.30;99.90;;;;;;4984576;28;20067;-75
2024/02/21 00:51:41;;;;;;;26.65;16.60;;;9.30;99.90;;;;;;4974523;28;20132;-75
2024/02/21 00:54:07;;;;;;;35.92;19.15;;;9.30;99.90;;;;;;4983096;28;20026;-74
2024/02/21 00:56:33;;;;;;;29.15;16.40;;;9.30;99.90;;;;;;4978024;28;20621;-74
2024/02/21 00:59:00;;;;;;;34.30;18.63;;;9.30;99.90;;;;;;4963796;28;20507;-74
2024/02/21 01:01:26;;;;;;;31.85;18.05;;;9.30;99.90;;;;;;4978776;28;20785;-74
2024/02/21 01:03:53;;;;;;;27.98;17.73;;;9.30;99.90;;;;;;4978994;28;20044;-74
2024/02/21 01:06:20;;;;;;;27.73;18.38;;;9.30;99.90;;;;;;4963642;28;20049;-73
2024/02/21 01:08:49;;;;;;;30.73;18.60;;;9.30;99.90;;;;;;4993099;28;20033;-74
2024/02/21 01:11:17;;;;;;;34.30;18.75;;;9.30;99.90;;;;;;4991549;28;21623;-74
2024/02/21 01:13:44;;;;;;;35.30;19.13;;;9.30;99.90;;;;;;4964995;28;20048;-74
2024/02/21 01:16:10;;;;;;;27.25;17.08;;;9.30;99.90;;;;;;4977609;28;20692;-75
2024/02/21 01:18:40;;;;;;;28.13;17.88;;;9.30;99.90;;;;;;4977982;28;20041;-75
2024/02/21 01:21:07;;;;;;;32.13;19.35;;;9.30;99.90;;;;;;4966384;28;20478;-74
2024/02/21 01:23:37;;;;;;;33.08;18.30;;;9.30;99.90;;;;;;4979733;28;20045;-74
2024/02/21 01:26:04;;;;;;;31.58;18.20;;;9.30;99.90;;;;;;4984511;28;20036;-75
2024/02/21 01:28:31;;;;;;;29.42;17.30;;;9.30;99.90;;;;;;4970762;28;20038;-74
2024/02/21 01:30:57;;;;;;;28.90;18.70;;;9.30;99.90;;;;;;4981747;28;20044;-74
2024/02/21 01:33:23;;;;;;;31.48;18.17;;;9.30;99.90;;;;;;4981332;28;20033;-74
2024/02/21 01:35:50;;;;;;;25.40;16.17;;;9.30;99.90;;;;;;4946098;28;20693;-75
2024/02/21 01:38:17;;;;;;;23.70;15.70;;;9.30;99.90;;;;;;4964265;28;20084;-74
2024/02/21 01:40:43;;;;;;;38.88;20.05;;;9.30;99.90;;;;;;4965423;28;20044;-74
2024/02/21 01:43:17;;;;;;;29.60;18.08;;;9.30;99.90;;;;;;4965679;28;20045;-75
2024/02/21 01:45:48;;;;;;;25.48;17.65;;;9.20;99.90;;;;;;4973881;28;20052;-74
2024/02/21 01:48:18;;;;;;;31.90;18.92;;;9.30;99.90;;;;;;4986345;28;21094;-74
2024/02/21 01:50:46;;;;;;;26.15;16.02;;;9.30;99.90;;;;;;4981758;28;20045;-76
2024/02/21 01:53:19;;;;;;;25.67;14.82;;;9.20;99.90;;;;;;4965620;28;20033;-75
2024/02/21 01:55:46;;;;;;;28.48;16.80;;;9.30;99.90;;;;;;4982402;28;20041;-75
2024/02/21 01:58:15;;;;;;;26.83;15.95;;;9.30;99.90;;;;;;4983751;28;20512;-74
2024/02/21 02:00:46;;;;;;;27.48;16.77;;;9.30;99.90;;;;;;5017292;28;20054;-75
2024/02/21 02:03:19;;;;;;;25.17;16.33;;;9.30;99.90;;;;;;5023696;28;20041;-75
2024/02/21 02:05:46;;;;;;;26.38;15.98;;;9.30;99.90;;;;;;5001753;28;20048;-75
2024/02/21 02:08:18;;;;;;;31.73;17.02;;;9.30;99.90;;;;;;4982012;28;20523;-75
2024/02/21 02:10:45;;;;;;;28.67;16.20;;;9.20;99.90;;;;;;4950019;28;20125;-74
2024/02/21 02:13:12;;;;;;;26.65;16.55;;;9.20;99.90;;;;;;4963387;28;20041;-75
2024/02/21 02:15:40;;;;;;;28.52;17.25;;;9.30;99.90;;;;;;4963999;28;20500;-75
2024/02/21 02:18:06;;;;;;;31.80;18.00;;;9.30;99.90;;;;;;4969586;28;20033;-74
2024/02/21 02:20:33;;;;;;;31.67;17.08;;;9.30;99.90;;;;;;4974959;28;20040;-75
2024/02/21 02:23:00;;;;;;;25.10;15.98;;;9.20;99.90;;;;;;4971443;28;20041;-75
2024/02/21 02:25:27;;;;;;;31.13;16.42;;;9.20;99.90;;;;;;4963512;28;20037;-75
2024/02/21 02:27:54;;;;;;;26.45;15.68;;;9.20;99.90;;;;;;4966366;28;20056;-74
2024/02/21 02:30:21;;;;;;;26.00;16.40;;;9.20;99.90;;;;;;4966127;28;20394;-75
2024/02/21 02:32:47;;;;;;;24.60;16.23;;;9.20;99.90;;;;;;4980832;28;20048;-74
2024/02/21 02:35:14;;;;;;;29.20;17.10;;;9.20;99.90;;;;;;4963704;28;20473;-74
2024/02/21 02:37:47;;;;;;;26.88;16.00;;;9.20;99.90;;;;;;4958742;28;20041;-74
2024/02/21 02:40:13;;;;;;;30.33;17.95;;;9.20;99.90;;;;;;4960989;28;20033;-75
2024/02/21 02:42:39;;;;;;;36.08;20.17;;;9.20;99.90;;;;;;4969402;28;21030;-75
2024/02/21 02:45:06;;;;;;;31.08;17.73;;;9.20;99.90;;;;;;4984782;28;20037;-74
2024/02/21 02:47:34;;;;;;;30.52;17.77;;;9.20;99.90;;;;;;4967124;28;20037;-74
2024/02/21 02:50:01;;;;;;;30.33;18.50;;;9.20;99.90;;;;;;4951024;28;20080;-74
2024/02/21 02:52:28;;;;;;;30.42;17.13;;;9.10;99.90;;;;;;4954039;28;20052;-74
2024/02/21 02:54:55;;;;;;;25.40;16.60;;;9.20;99.90;;;;;;4975355;28;20044;-75
2024/02/21 02:57:22;;;;;;;28.23;15.95;;;9.20;99.90;;;;;;4977987;28;20064;-77
2024/02/21 02:59:49;;;;;;;23.58;16.05;;;9.20;99.90;;;;;;4973525;28;20046;-75
2024/02/21 03:02:16;;;;;;;27.75;17.65;;;9.20;99.90;;;;;;4972859;28;20401;-74
2024/02/21 03:04:43;;;;;;;29.40;17.77;;;9.20;99.90;;;;;;4983278;28;20042;-75
2024/02/21 03:07:11;;;;;;;28.15;16.23;;;9.10;99.90;;;;;;4968584;28;20424;-76
2024/02/21 03:09:38;;;;;;;27.23;16.77;;;9.20;99.90;;;;;;4985658;28;20041;-74
2024/02/21 03:12:05;;;;;;;26.15;16.88;;;9.20;99.90;;;;;;4996851;28;20037;-76
2024/02/21 03:14:33;;;;;;;26.05;17.25;;;9.20;99.90;;;;;;4991006;28;20029;-75
2024/02/21 03:17:00;;;;;;;22.10;15.35;;;9.20;99.90;;;;;;4969160;28;20041;-74
2024/02/21 03:19:26;;;;;;;28.05;16.83;;;9.20;99.90;;;;;;4954215;28;20551;-74
2024/02/21 03:21:53;;;;;;;27.60;16.80;;;9.20;99.90;;;;;;4984361;28;20487;-75
2024/02/21 03:24:19;;;;;;;29.08;16.33;;;9.20;99.90;;;;;;4968145;28;20041;-74
2024/02/21 03:26:47;;;;;;;23.63;14.32;;;9.20;99.90;;;;;;4985001;28;20644;-74
2024/02/21 03:29:15;;;;;;;24.05;15.27;;;9.10;99.90;;;;;;4971804;28;20532;-74
2024/02/21 03:31:42;;;;;;;23.98;15.50;;;9.10;99.90;;;;;;4993927;28;20048;-75
2024/02/21 03:34:10;;;;;;;31.55;16.85;;;9.20;99.90;;;;;;4987904;28;20034;-75
2024/02/21 03:36:38;;;;;;;23.80;16.83;;;9.20;99.90;;;;;;4979737;28;20037;-75
2024/02/21 03:39:05;;;;;;;23.42;14.70;;;9.10;99.90;;;;;;4952103;28;20033;-75
2024/02/21 03:41:31;;;;;;;23.35;14.43;;;9.20;99.90;;;;;;4985898;28;20029;-75
2024/02/21 03:43:57;;;;;;;21.15;15.15;;;9.20;99.90;;;;;;4953374;28;20041;-75
2024/02/21 03:46:25;;;;;;;21.80;13.13;;;9.10;99.90;;;;;;4989540;28;20033;-74
2024/02/21 03:48:51;;;;;;;23.42;14.43;;;9.20;99.90;;;;;;4961859;28;20046;-74
2024/02/21 03:51:17;;;;;;;19.98;13.63;;;9.20;99.90;;;;;;4988057;28;20056;-75
2024/02/21 03:53:44;;;;;;;19.52;12.98;;;9.10;99.90;;;;;;4965576;28;21389;-75
2024/02/21 03:56:10;;;;;;;20.70;12.70;;;9.20;99.90;;;;;;4980501;28;20041;-75
2024/02/21 03:58:37;;;;;;;20.02;12.52;;;9.20;99.90;;;;;;4999740;28;20132;-75
2024/02/21 04:01:03;;;;;;;20.90;13.02;;;9.20;99.90;;;;;;4983624;28;22254;-75
2024/02/21 04:03:31;;;;;;;24.35;12.98;;;9.20;99.90;;;;;;4970691;28;20046;-75
2024/02/21 04:05:57;;;;;;;24.52;14.40;;;9.20;99.90;;;;;;4973724;28;20045;-75
2024/02/21 04:08:24;;;;;;;26.08;14.73;;;9.20;99.90;;;;;;5003715;28;20632;-74
2024/02/21 04:10:50;;;;;;;21.80;13.57;;;9.10;99.90;;;;;;4982792;28;22427;-75
2024/02/21 04:13:17;;;;;;;18.75;12.10;;;9.20;99.90;;;;;;4983858;28;21324;-74
2024/02/21 04:15:43;;;;;;;26.10;12.55;;;9.10;99.90;;;;;;4982590;28;20028;-74
2024/02/21 04:18:09;;;;;;;24.60;13.57;;;9.20;99.90;;;;;;4985175;28;20032;-74
2024/02/21 04:20:37;;;;;;;24.13;12.80;;;9.20;99.90;;;;;;4989689;28;20387;-74
2024/02/21 04:23:04;;;;;;;18.80;11.93;;;9.20;99.90;;;;;;4990949;28;20511;-75
2024/02/21 04:25:30;;;;;;;17.05;10.45;;;9.10;99.90;;;;;;4986180;28;20049;-74
2024/02/21 04:27:56;;;;;;;18.25;9.90;;;9.20;99.90;;;;;;4966624;28;20042;-74
2024/02/21 04:30:23;;;;;;;14.95;9.90;;;9.20;99.90;;;;;;4949039;28;20040;-75
2024/02/21 04:32:49;;;;;;;21.13;11.52;;;9.20;99.90;;;;;;4983509;28;20082;-75
2024/02/21 04:35:16;;;;;;;20.33;10.48;;;9.20;99.90;;;;;;4948722;28;20041;-75
2024/02/21 04:37:43;;;;;;;18.95;11.50;;;9.20;99.90;;;;;;4991971;28;20045;-74
2024/02/21 04:40:10;;;;;;;19.70;10.88;;;9.20;99.90;;;;;;4986432;28;20037;-75
2024/02/21 04:42:36;;;;;;;18.50;10.55;;;9.10;99.90;;;;;;4963875;28;20046;-75
2024/02/21 04:45:03;;;;;;;18.25;10.55;;;9.20;99.90;;;;;;4977723;28;20356;-75
2024/02/21 04:47:30;;;;;;;18.77;11.40;;;9.20;99.90;;;;;;4966402;28;20036;-74
2024/02/21 04:49:56;;;;;;;18.42;11.10;;;9.10;99.90;;;;;;4980351;28;21664;-74
2024/02/21 04:52:23;;;;;;;17.10;11.45;;;9.20;99.90;;;;;;4965221;28;20044;-74
2024/02/21 04:54:50;;;;;;;18.30;9.68;;;9.20;99.90;;;;;;4983610;28;20025;-74
2024/02/21 04:57:16;;;;;;;18.67;10.07;;;9.20;99.90;;;;;;4974253;28;20668;-77
2024/02/21 04:59:47;;;;;;;16.75;9.35;;;9.10;99.90;;;;;;4989130;28;20045;-74
2024/02/21 05:02:14;;;;;;;14.68;8.82;;;9.20;99.90;;;;;;4982713;28;20025;-73
2024/02/21 05:04:42;;;;;;;21.05;9.20;;;9.10;99.90;;;;;;4983192;28;20041;-75
2024/02/21 05:07:10;;;;;;;14.65;9.27;;;9.10;99.90;;;;;;4954277;28;20041;-75
2024/02/21 05:09:37;;;;;;;14.38;9.40;;;9.10;99.90;;;;;;4982960;28;20033;-76
2024/02/21 05:12:04;;;;;;;16.88;9.23;;;9.10;99.90;;;;;;4984098;28;20045;-75
2024/02/21 05:14:30;;;;;;;16.13;9.77;;;9.10;99.90;;;;;;5002264;28;21152;-75
2024/02/21 05:16:57;;;;;;;16.75;10.63;;;9.10;99.90;;;;;;4975928;28;20057;-74
2024/02/21 05:19:23;;;;;;;17.30;10.43;;;9.10;99.90;;;;;;4984470;28;20056;-74
2024/02/21 05:21:50;;;;;;;17.55;9.55;;;9.10;99.90;;;;;;4967110;28;21230;-75
2024/02/21 05:24:16;;;;;;;16.27;9.70;;;9.10;99.90;;;;;;4963924;28;20037;-76
2024/02/21 05:26:43;;;;;;;19.95;11.40;;;9.10;99.90;;;;;;4962488;28;20037;-75
2024/02/21 05:29:10;;;;;;;20.40;12.18;;;9.10;99.90;;;;;;4962511;28;20048;-76
2024/02/21 05:31:51;;;;;;;20.13;12.15;;;9.10;99.90;;;;;;4979533;28;20037;-75
2024/02/21 05:34:18;;;;;;;19.92;12.55;;;9.10;99.90;;;;;;4985362;28;20041;-74
2024/02/21 05:36:45;;;;;;;16.63;11.05;;;9.10;99.90;;;;;;4972377;28;20033;-76
2024/02/21 05:39:13;;;;;;;23.08;13.98;;;9.10;99.90;;;;;;4965425;28;20470;-75
2024/02/21 05:41:39;;;;;;;19.90;13.32;;;9.10;99.90;;;;;;4980051;28;20516;-76
2024/02/21 05:44:06;;;;;;;18.85;12.07;;;9.10;99.90;;;;;;4961481;28;20026;-76
2024/02/21 05:46:32;;;;;;;21.25;11.95;;;9.10;99.90;;;;;;4979828;28;20863;-76
2024/02/21 05:48:59;;;;;;;17.05;11.70;;;9.10;99.90;;;;;;4991922;28;20087;-75
2024/02/21 05:51:25;;;;;;;21.02;13.70;;;9.10;99.90;;;;;;4971221;28;20040;-74
2024/02/21 05:53:51;;;;;;;22.27;13.85;;;9.10;99.90;;;;;;4974819;28;20057;-75
2024/02/21 05:56:19;;;;;;;22.00;14.45;;;9.10;99.90;;;;;;4985129;28;21303;-75
2024/02/21 05:58:45;;;;;;;23.63;14.50;;;9.10;99.90;;;;;;4984591;28;20037;-75
2024/02/21 06:01:11;;;;;;;18.20;13.07;;;9.00;99.90;;;;;;4985471;28;20044;-75
2024/02/21 06:03:38;;;;;;;26.38;15.35;;;9.10;99.90;;;;;;4967795;28;20029;-75
2024/02/21 06:06:05;;;;;;;22.83;13.90;;;9.10;99.90;;;;;;4965814;28;21361;-75
2024/02/21 06:08:31;;;;;;;25.48;15.23;;;9.10;99.90;;;;;;4989002;28;20033;-76
2024/02/21 06:10:58;;;;;;;26.45;14.30;;;9.10;99.90;;;;;;5008656;28;20473;-75
2024/02/21 06:13:24;;;;;;;20.88;13.65;;;9.10;99.90;;;;;;4994933;28;20060;-74
2024/02/21 06:15:51;;;;;;;23.55;14.15;;;9.10;99.90;;;;;;4999636;28;20041;-75
2024/02/21 06:18:17;;;;;;;22.05;14.38;;;9.10;99.90;;;;;;4955902;28;20041;-74
2024/02/21 06:20:45;;;;;;;23.80;14.27;;;9.10;99.90;;;;;;4970605;28;20033;-74
2024/02/21 06:23:13;;;;;;;26.00;14.23;;;9.10;99.90;;;;;;4952948;28;20428;-75
2024/02/21 06:25:39;;;;;;;20.50;14.60;;;9.10;99.90;;;;;;4969167;28;20499;-76
2024/02/21 06:28:06;;;;;;;17.70;12.35;;;9.10;99.90;;;;;;5011548;28;20044;-76
2024/02/21 06:30:33;;;;;;;17.90;12.05;;;9.10;99.90;;;;;;4991962;28;20048;-75
2024/02/21 06:33:00;;;;;;;19.90;12.07;;;9.10;99.90;;;;;;4983077;28;21227;-75
2024/02/21 06:35:26;;;;;;;23.13;13.15;;;9.10;99.90;;;;;;4966015;28;20552;-75
2024/02/21 06:37:53;;;;;;;18.80;13.23;;;9.10;99.90;;;;;;4984375;28;21709;-76
2024/02/21 06:40:22;;;;;;;25.05;14.85;;;9.10;99.90;;;;;;4986636;28;20359;-75
2024/02/21 06:42:50;;;;;;;22.55;13.30;;;9.10;99.90;;;;;;4971806;28;20030;-75
2024/02/21 06:45:17;;;;;;;18.73;11.25;;;9.10;99.90;;;;;;4991956;28;20038;-74
2024/02/21 06:47:43;;;;;;;17.73;10.90;;;9.10;99.90;;;;;;4970113;28;20049;-74
2024/02/21 06:50:10;;;;;;;16.58;10.93;;;9.10;99.90;;;;;;4967410;28;20056;-75
2024/02/21 06:52:37;;;;;;;18.60;10.63;;;9.10;99.90;;;;;;4982770;28;20063;-75
2024/02/21 06:55:04;;;;;;;20.40;11.93;;;9.10;99.90;;;;;;4965623;28;20044;-75
2024/02/21 06:57:30;;;;;;;20.92;11.63;;;9.10;99.90;;;;;;4984820;28;20037;-75
2024/02/21 06:59:56;;;;;;;19.17;11.35;;;9.10;99.90;;;;;;4960005;28;20041;-75
2024/02/21 07:02:23;;;;;;;16.83;9.35;;;9.10;99.90;;;;;;4964072;28;20060;-74
2024/02/21 07:04:50;;;;;;;16.33;11.02;;;9.10;99.90;;;;;;4974619;28;20037;-74
2024/02/21 07:07:16;;;;;;;20.98;12.10;;;9.10;99.90;;;;;;4985890;28;20048;-74
2024/02/21 07:09:42;;;;;;;23.50;11.45;;;9.10;99.90;;;;;;4971547;28;20033;-75
2024/02/21 07:12:09;;;;;;;24.63;12.27;;;9.10;99.90;;;;;;4986531;28;20740;-75
2024/02/21 07:14:37;;;;;;;20.73;11.98;;;9.10;99.90;;;;;;4967490;28;20049;-74
2024/02/21 07:17:03;;;;;;;19.17;10.93;;;9.10;99.90;;;;;;4992002;28;20037;-75
2024/02/21 07:19:30;;;;;;;21.23;11.00;;;9.10;99.90;;;;;;4996506;28;20348;-76
2024/02/21 07:21:57;;;;;;;22.17;11.43;;;9.10;99.90;;;;;;4973954;28;20052;-75
2024/02/21 07:24:23;;;;;;;20.40;11.57;;;9.20;99.90;;;;;;4985726;28;21733;-75
2024/02/21 07:26:50;;;;;;;17.65;10.13;;;9.10;99.90;;;;;;4971705;28;20070;-74
2024/02/21 07:29:16;;;;;;;17.52;10.48;;;9.20;99.90;;;;;;4968355;28;20601;-74
2024/02/21 07:31:43;;;;;;;23.40;12.07;;;9.20;99.90;;;;;;4986452;28;20038;-74
2024/02/21 07:34:10;;;;;;;24.58;11.55;;;9.20;99.90;;;;;;4992101;28;21825;-75
2024/02/21 07:36:38;;;;;;;18.80;11.32;;;9.20;99.90;;;;;;4989309;28;20583;-76
2024/02/21 07:39:05;;;;;;;23.20;11.32;;;9.20;99.90;;;;;;4984854;28;20500;-75
2024/02/21 07:41:31;;;;;;;21.85;12.90;;;9.20;99.90;;;;;;4984000;28;20504;-76
2024/02/21 07:43:58;;;;;;;20.02;11.55;;;9.20;99.90;;;;;;4985654;28;20029;-75
2024/02/21 07:46:24;;;;;;;19.17;10.55;;;9.30;99.90;;;;;;4965146;28;20728;-75
2024/02/21 07:48:51;;;;;;;18.85;10.75;;;9.20;99.90;;;;;;4970478;28;21056;-75
2024/02/21 07:51:17;;;;;;;17.20;10.65;;;9.30;99.90;;;;;;4991783;28;20044;-76
2024/02/21 07:53:45;;;;;;;20.60;11.18;;;9.30;99.90;;;;;;4971071;28;20053;-76
2024/02/21 07:56:12;;;;;;;18.90;11.13;;;9.30;99.90;;;;;;4962859;28;20037;-75
2024/02/21 07:58:40;;;;;;;19.35;11.25;;;9.30;99.90;;;;;;4981157;28;20037;-75
2024/02/21 08:01:08;;;;;;;20.17;10.98;;;9.30;99.90;;;;;;4982140;28;20048;-75
2024/02/21 08:03:35;;;;;;;20.55;13.10;;;9.40;99.90;;;;;;4967592;28;20040;-75
2024/02/21 08:06:03;;;;;;;20.13;11.27;;;9.40;99.90;;;;;;4955209;28;20037;-75
2024/02/21 08:08:30;;;;;;;18.20;9.73;;;9.40;99.90;;;;;;4992342;28;20038;-76
2024/02/21 08:10:56;;;;;;;20.30;10.68;;;9.40;99.90;;;;;;4985127;28;20043;-76
2024/02/21 08:13:22;;;;;;;22.38;10.85;;;9.50;99.90;;;;;;4964671;28;20042;-75
2024/02/21 08:15:49;;;;;;;20.58;10.27;;;9.50;99.90;;;;;;4962769;28;20041;-75
2024/02/21 08:18:16;;;;;;;17.42;10.95;;;9.50;99.90;;;;;;4968283;28;20048;-77
2024/02/21 08:20:43;;;;;;;15.75;10.95;;;9.50;99.90;;;;;;4966912;28;20046;-76
2024/02/21 08:23:10;;;;;;;20.90;13.20;;;9.50;99.90;;;;;;4991443;28;20044;-75
2024/02/21 08:25:37;;;;;;;17.00;10.43;;;9.60;99.90;;;;;;4988846;28;20037;-75
2024/02/21 08:28:05;;;;;;;20.77;11.15;;;9.60;99.90;;;;;;4987550;28;20059;-75
2024/02/21 08:30:32;;;;;;;18.80;10.25;;;9.60;99.90;;;;;;4965872;28;20045;-76
2024/02/21 08:32:58;;;;;;;20.73;11.13;;;9.70;99.90;;;;;;4981317;28;20041;-75
2024/02/21 08:35:25;;;;;;;20.48;11.18;;;9.70;99.90;;;;;;4980207;28;20058;-75
2024/02/21 08:37:51;;;;;;;24.05;11.15;;;9.80;99.90;;;;;;4981022;28;20607;-77
2024/02/21 08:40:20;;;;;;;20.80;11.05;;;9.80;99.90;;;;;;4984749;28;20488;-77
2024/02/21 08:42:47;;;;;;;20.90;10.68;;;9.80;99.90;;;;;;4993178;28;20042;-75
2024/02/21 08:45:14;;;;;;;21.33;11.35;;;9.80;99.90;;;;;;4986120;28;20248;-76
2024/02/21 08:47:40;;;;;;;17.42;10.13;;;9.80;99.90;;;;;;4965845;28;20041;-77
2024/02/21 08:50:09;;;;;;;26.17;12.45;;;9.80;99.90;;;;;;4984818;28;20898;-75
2024/02/21 08:52:36;;;;;;;17.10;10.63;;;9.80;99.90;;;;;;4983626;28;20037;-76
2024/02/21 08:55:02;;;;;;;16.60;9.85;;;9.80;99.90;;;;;;4985661;28;20040;-77
2024/02/21 08:57:28;;;;;;;19.58;11.20;;;9.90;99.90;;;;;;4971599;28;20045;-77
2024/02/21 08:59:55;;;;;;;18.70;10.55;;;9.90;99.90;;;;;;4995266;28;20772;-75
2024/02/21 09:02:21;;;;;;;20.35;12.35;;;9.90;99.90;;;;;;4973837;28;20041;-75
2024/02/21 09:04:48;;;;;;;16.92;9.98;;;9.90;99.90;;;;;;4983519;28;20782;-75
2024/02/21 09:07:15;;;;;;;17.75;10.95;;;9.90;99.90;;;;;;4984358;28;20029;-76
2024/02/21 09:09:41;;;;;;;17.70;10.70;;;9.90;99.90;;;;;;4981992;28;20040;-76
2024/02/21 09:12:08;;;;;;;14.13;9.77;;;9.90;99.90;;;;;;4985119;28;20605;-75
2024/02/21 09:14:37;;;;;;;15.40;10.65;;;9.90;99.90;;;;;;4983494;28;20052;-76
2024/02/21 09:17:03;;;;;;;19.90;10.82;;;10.00;99.90;;;;;;4993719;28;20029;-75
2024/02/21 09:19:30;;;;;;;18.77;10.88;;;10.00;99.90;;;;;;4988107;28;20976;-75
2024/02/21 09:21:56;;;;;;;14.88;9.23;;;10.10;99.90;;;;;;4965610;28;20045;-77
2024/02/21 09:24:23;;;;;;;19.25;10.25;;;10.10;99.90;;;;;;4980030;28;20034;-75
2024/02/21 09:26:50;;;;;;;20.13;10.98;;;10.10;99.90;;;;;;4981865;28;20038;-76
2024/02/21 09:29:16;;;;;;;19.13;10.32;;;10.10;99.90;;;;;;4981302;28;21171;-76
2024/02/21 09:31:42;;;;;;;16.95;10.63;;;10.20;99.90;;;;;;4973078;28;21300;-75
2024/02/21 09:34:10;;;;;;;14.10;8.25;;;10.20;99.90;;;;;;4973940;28;20041;-76
2024/02/21 09:36:38;;;;;;;13.38;9.20;;;10.30;99.90;;;;;;4952896;28;20060;-75
2024/02/21 09:39:04;;;;;;;18.00;9.32;;;10.30;99.90;;;;;;4983983;28;20681;-74
2024/02/21 09:41:31;;;;;;;18.83;9.52;;;10.30;99.90;;;;;;4968610;28;20030;-74
2024/02/21 09:43:59;;;;;;;16.25;10.85;;;10.40;99.90;;;;;;4995885;28;20072;-76
2024/02/21 09:46:55;;;;;;;17.52;10.73;;;10.40;99.90;;;;;;4980570;28;21940;-75
2024/02/21 09:49:37;;;;;;;23.05;12.90;;;10.50;99.90;;;;;;4984697;28;21684;-75
2024/02/21 09:52:07;;;;;;;16.02;9.90;;;10.50;99.90;;;;;;5012123;28;20499;-78
2024/02/21 09:54:34;;;;;;;13.95;9.38;;;10.50;99.90;;;;;;4985848;28;20056;-75
2024/02/21 09:57:05;;;;;;;14.55;8.38;;;10.50;99.90;;;;;;4986212;28;21571;-75
2024/02/21 09:59:32;;;;;;;14.30;8.10;;;10.50;99.90;;;;;;4984484;28;20107;-77
2024/02/21 10:02:00;;;;;;;12.45;7.85;;;10.50;99.90;;;;;;4967813;28;20044;-77
2024/02/21 10:04:27;;;;;;;12.55;8.02;;;10.60;99.90;;;;;;4983923;28;20033;-75
2024/02/21 10:06:54;;;;;;;11.77;7.43;;;10.60;99.90;;;;;;5024634;28;20034;-77
2024/02/21 10:09:28;;;;;;;11.30;8.45;;;10.60;99.90;;;;;;4990555;28;20033;-77
2024/02/21 10:11:56;;;;;;;11.45;7.13;;;10.70;99.90;;;;;;4955729;28;21282;-77
2024/02/21 10:14:22;;;;;;;12.50;7.47;;;10.70;99.90;;;;;;4985659;28;20049;-75
2024/02/21 10:16:58;;;;;;;10.90;6.38;;;10.80;99.90;;;;;;4970755;28;20038;-76
2024/02/21 10:19:25;;;;;;;10.57;6.85;;;10.80;99.90;;;;;;4987227;28;20021;-76
2024/02/21 10:22:03;;;;;;;9.57;7.00;;;10.80;99.90;;;;;;4993148;28;20044;-77
2024/02/21 10:24:32;;;;;;;11.00;6.75;;;10.90;99.90;;;;;;4978188;28;20049;-75
2024/02/21 10:27:03;;;;;;;8.73;6.25;;;11.00;99.90;;;;;;4976028;28;20037;-76
2024/02/21 10:29:33;;;;;;;8.48;5.85;;;11.00;99.90;;;;;;4970492;28;20038;-76
2024/02/21 10:32:09;;;;;;;7.60;6.68;;;11.00;99.90;;;;;;4970999;28;20515;-75
2024/02/21 10:34:37;;;;;;;8.73;6.25;;;11.00;99.90;;;;;;4985283;28;20053;-76
2024/02/21 10:37:07;;;;;;;10.40;6.22;;;10.90;99.90;;;;;;5002638;28;20025;-76
2024/02/21 10:39:36;;;;;;;7.18;5.93;;;10.90;99.90;;;;;;4974546;28;20048;-75
2024/02/21 10:42:03;;;;;;;7.93;5.38;;;10.80;99.90;;;;;;5011096;28;20053;-74
2024/02/21 10:44:32;;;;;;;7.93;5.38;;;10.70;99.90;;;;;;4988739;28;20037;-78
2024/02/21 10:46:59;;;;;;;9.68;6.55;;;10.70;99.90;;;;;;4973182;28;20045;-75
2024/02/21 10:49:28;;;;;;;9.48;6.85;;;10.60;99.90;;;;;;4971866;28;20044;-75
2024/02/21 10:52:15;;;;;;;8.35;5.75;;;10.60;99.90;;;;;;4970047;28;20037;-75
2024/02/21 10:54:56;;;;;;;7.72;5.25;;;10.60;99.90;;;;;;4969521;28;20248;-76
2024/02/21 10:57:24;;;;;;;8.60;5.35;;;10.60;99.90;;;;;;4980701;28;20108;-75
2024/02/21 10:59:52;;;;;;;8.70;4.95;;;10.50;99.90;;;;;;4994966;28;20037;-76
2024/02/21 11:02:18;;;;;;;6.85;5.35;;;10.50;99.90;;;;;;4987296;28;20049;-73
2024/02/21 11:04:46;;;;;;;10.45;7.35;;;10.50;99.90;;;;;;4980421;28;20033;-75
2024/02/21 11:07:15;;;;;;;6.32;5.72;;;10.50;99.90;;;;;;4970978;28;20086;-73
2024/02/21 11:09:52;;;;;;;13.10;7.47;;;10.50;99.90;;;;;;4987530;28;20041;-74
2024/02/21 11:12:22;;;;;;;10.63;7.10;;;10.60;99.90;;;;;;4970889;28;21629;-74
2024/02/21 11:14:49;;;;;;;9.27;6.35;;;10.60;99.90;;;;;;4991894;28;20044;-75
2024/02/21 11:17:22;;;;;;;8.40;6.65;;;10.60;99.90;;;;;;4961712;28;20128;-74
2024/02/21 11:19:48;;;;;;;9.52;7.22;;;10.60;99.90;;;;;;4963569;28;21396;-74
2024/02/21 11:22:20;;;;;;;9.65;6.90;;;10.60;99.90;;;;;;5004623;28;20045;-76
2024/02/21 11:24:47;;;;;;;9.10;6.38;;;10.60;99.90;;;;;;4974216;28;20048;-76
2024/02/21 11:27:24;;;;;;;9.38;6.72;;;10.60;99.90;;;;;;4966037;28;20404;-76
2024/02/21 11:29:58;;;;;;;9.77;6.50;;;10.60;99.90;;;;;;4969217;28;20037;-76
2024/02/21 11:32:26;;;;;;;8.73;7.00;;;10.60;99.90;;;;;;4985313;28;20029;-74
2024/02/21 11:35:05;;;;;;;8.40;5.85;;;10.70;99.90;;;;;;4996209;28;20033;-74
2024/02/21 11:37:34;;;;;;;11.27;6.47;;;10.60;99.90;;;;;;4977596;28;20033;-75
2024/02/21 11:40:02;;;;;;;8.90;6.55;;;10.70;99.90;;;;;;5020812;28;20527;-75
2024/02/21 11:42:30;;;;;;;9.43;7.15;;;10.60;99.90;;;;;;4972764;28;20037;-75
2024/02/21 11:44:56;;;;;;;14.18;7.28;;;10.60;99.90;;;;;;4972795;28;20041;-76
2024/02/21 11:47:23;;;;;;;10.38;6.63;;;10.60;99.90;;;;;;4975742;28;20041;-76
2024/02/21 11:49:53;;;;;;;10.48;7.00;;;10.50;99.90;;;;;;4962124;28;20045;-76
2024/02/21 11:52:25;;;;;;;10.82;7.35;;;10.50;99.90;;;;;;4999004;28;20041;-75
2024/02/21 11:54:56;;;;;;;9.55;5.93;;;10.50;99.90;;;;;;4995191;28;20050;-76
2024/02/21 11:57:23;;;;;;;9.97;5.97;;;10.40;99.90;;;;;;4958671;28;20060;-75
2024/02/21 11:59:52;;;;;;;12.02;6.50;;;10.40;99.90;;;;;;4956803;28;20524;-76
2024/02/21 12:02:19;;;;;;;11.25;6.18;;;10.40;99.90;;;;;;4994190;28;20575;-76
2024/02/21 12:04:45;;;;;;;9.75;6.38;;;10.40;99.90;;;;;;4990059;28;20049;-75
2024/02/21 12:07:12;;;;;;;8.73;6.55;;;10.30;99.90;;;;;;4968454;28;20052;-75
2024/02/21 12:09:42;;;;;;;9.35;5.63;;;10.30;99.90;;;;;;4994578;28;20036;-75
2024/02/21 12:12:08;;;;;;;8.30;5.68;;;10.30;99.90;;;;;;4986103;28;20037;-76
2024/02/21 12:14:35;;;;;;;8.88;6.32;;;10.30;99.90;;;;;;4973461;28;20038;-75
2024/02/21 12:17:05;;;;;;;9.13;5.75;;;10.30;99.90;;;;;;4991610;28;20269;-76
2024/02/21 12:19:34;;;;;;;10.98;6.22;;;10.40;99.90;;;;;;4960817;28;22104;-76
2024/02/21 12:22:01;;;;;;;11.05;6.38;;;10.50;99.90;;;;;;4993114;28;21082;-76
2024/02/21 12:24:29;;;;;;;8.68;5.60;;;10.50;99.90;;;;;;4998974;28;20041;-77
2024/02/21 12:26:56;;;;;;;8.63;5.25;;;10.60;99.90;;;;;;4995173;28;20037;-75
2024/02/21 12:29:26;;;;;;;9.93;5.43;;;10.70;99.90;;;;;;4990361;28;20451;-76
2024/02/21 12:31:54;;;;;;;7.97;4.97;;;10.80;99.90;;;;;;5008985;28;20953;-75
2024/02/21 12:34:22;;;;;;;9.63;4.90;;;10.90;99.90;;;;;;4974082;28;20045;-76
2024/02/21 12:36:48;;;;;;;8.07;5.32;;;11.10;99.90;;;;;;4974695;28;20048;-75
2024/02/21 12:39:15;;;;;;;10.07;5.53;;;11.20;99.90;;;;;;4997204;28;20038;-75